createdAt,value
2023-04-26T00:00:54.213Z,30.35
2023-04-26T00:01:54.189Z,30.32
2023-04-26T00:02:54.276Z,30.32
2023-04-26T00:03:54.414Z,30.31
2023-04-26T00:04:54.351Z,30.28
2023-04-26T00:05:54.266Z,30.29
2023-04-26T00:06:54.227Z,30.26
2023-04-26T00:07:54.165Z,30.26
2023-04-26T00:08:54.368Z,30.27
2023-04-26T00:09:54.153Z,30.19
2023-04-26T00:10:54.177Z,30.22
2023-04-26T00:11:54.125Z,30.19
2023-04-26T00:12:54.129Z,30.20
2023-04-26T00:13:54.115Z,30.18
2023-04-26T00:14:54.099Z,30.15
2023-04-26T00:15:54.142Z,30.17
2023-04-26T00:16:54.094Z,30.13
2023-04-26T00:17:54.249Z,30.13
2023-04-26T00:18:54.401Z,30.10
2023-04-26T00:19:54.062Z,30.13
2023-04-26T00:20:54.058Z,30.09
2023-04-26T00:21:54.049Z,30.05
2023-04-26T00:22:54.041Z,30.05
2023-04-26T00:23:54.041Z,30.05
2023-04-26T00:24:54.034Z,30.00
2023-04-26T00:25:54.028Z,30.06
2023-04-26T00:26:54.040Z,30.02
2023-04-26T00:27:54.004Z,30.06
2023-04-26T00:28:54.425Z,29.99
2023-04-26T00:29:53.999Z,29.99
2023-04-26T00:30:53.997Z,30.00
2023-04-26T00:31:54.028Z,29.99
2023-04-26T00:32:54.026Z,29.96
2023-04-26T00:33:53.991Z,29.98
2023-04-26T00:34:53.974Z,29.95
2023-04-26T00:35:53.996Z,29.94
2023-04-26T00:36:53.971Z,29.91
2023-04-26T00:37:53.951Z,29.88
2023-04-26T00:38:54.119Z,29.94
2023-04-26T00:39:53.948Z,29.94
2023-04-26T00:40:53.990Z,29.93
2023-04-26T00:41:54.031Z,29.88
2023-04-26T00:42:54.081Z,29.95
2023-04-26T00:43:54.118Z,29.87
2023-04-26T00:44:54.154Z,29.94
2023-04-26T00:45:54.219Z,29.90
2023-04-26T00:46:54.259Z,29.91
2023-04-26T00:47:54.292Z,29.87
2023-04-26T00:48:54.605Z,29.87
2023-04-26T00:49:54.375Z,29.89
2023-04-26T00:50:54.401Z,29.87
2023-04-26T00:51:54.454Z,29.89
2023-04-26T00:52:54.498Z,29.88
2023-04-26T00:53:54.541Z,29.87
2023-04-26T00:54:54.581Z,29.86
2023-04-26T00:55:54.666Z,29.87
2023-04-26T00:56:54.647Z,29.86
2023-04-26T00:57:54.673Z,29.86
2023-04-26T00:58:54.921Z,29.86
2023-04-26T00:59:54.762Z,29.86
2023-04-26T01:00:54.828Z,29.89
2023-04-26T01:01:54.832Z,29.85
2023-04-26T01:02:55.011Z,29.87
2023-04-26T01:03:55.028Z,29.88
2023-04-26T01:04:54.914Z,29.86
2023-04-26T01:05:54.956Z,29.86
2023-04-26T01:06:54.972Z,29.85
2023-04-26T01:07:55.039Z,29.87
2023-04-26T01:08:55.094Z,29.85
2023-04-26T01:09:55.131Z,29.87
2023-04-26T01:10:55.165Z,29.85
2023-04-26T01:11:55.201Z,29.83
2023-04-26T01:12:55.246Z,29.89
2023-04-26T01:13:55.291Z,29.85
2023-04-26T01:14:55.366Z,29.82
2023-04-26T01:15:55.394Z,29.85
2023-04-26T01:16:55.501Z,29.88
2023-04-26T01:17:55.463Z,29.81
2023-04-26T01:18:55.444Z,29.85
2023-04-26T01:19:55.457Z,29.82
2023-04-26T01:20:55.481Z,29.85
2023-04-26T01:21:55.530Z,29.83
2023-04-26T01:22:55.567Z,29.83
2023-04-26T01:23:55.610Z,29.83
2023-04-26T01:24:55.647Z,29.85
2023-04-26T01:25:55.670Z,29.80
2023-04-26T01:26:55.718Z,29.85
2023-04-26T01:27:55.776Z,29.85
2023-04-26T01:28:55.808Z,29.82
2023-04-26T01:29:55.862Z,29.81
2023-04-26T01:30:55.934Z,29.81
2023-04-26T01:31:55.929Z,29.81
2023-04-26T01:32:56.070Z,29.81
2023-04-26T01:33:56.045Z,29.78
2023-04-26T01:34:56.072Z,29.81
2023-04-26T01:35:56.130Z,29.79
2023-04-26T01:36:56.186Z,29.82
2023-04-26T01:37:56.240Z,29.80
2023-04-26T01:38:56.324Z,29.78
2023-04-26T01:39:56.359Z,29.74
2023-04-26T01:40:56.425Z,29.81
2023-04-26T01:41:56.481Z,29.82
2023-04-26T01:42:56.523Z,29.78
2023-04-26T01:43:56.585Z,29.80
2023-04-26T01:44:56.614Z,29.80
2023-04-26T01:45:56.686Z,29.77
2023-04-26T01:46:56.738Z,29.74
2023-04-26T01:47:56.829Z,29.76
2023-04-26T01:48:56.829Z,29.77
2023-04-26T01:49:56.871Z,29.78
2023-04-26T01:50:56.913Z,29.75
2023-04-26T01:51:56.976Z,29.78
2023-04-26T01:52:57.024Z,29.74
2023-04-26T01:53:57.071Z,29.79
2023-04-26T01:54:57.105Z,29.78
2023-04-26T01:55:57.138Z,29.71
2023-04-26T01:56:57.176Z,29.75
2023-04-26T01:57:57.197Z,29.78
2023-04-26T01:58:57.250Z,29.79
2023-04-26T01:59:57.277Z,29.76
2023-04-26T02:00:57.323Z,29.74
2023-04-26T02:01:57.420Z,29.73
2023-04-26T02:02:57.489Z,29.77
2023-04-26T02:03:57.484Z,29.79
2023-04-26T02:04:57.555Z,29.71
2023-04-26T02:05:57.564Z,29.74
2023-04-26T02:06:57.629Z,29.73
2023-04-26T02:07:57.666Z,29.75
2023-04-26T02:08:57.714Z,29.74
2023-04-26T02:09:57.774Z,29.74
2023-04-26T02:10:57.824Z,29.78
2023-04-26T02:11:57.837Z,29.74
2023-04-26T02:12:57.867Z,29.73
2023-04-26T02:13:57.918Z,29.74
2023-04-26T02:14:57.944Z,29.69
2023-04-26T02:15:58.013Z,29.71
2023-04-26T02:16:58.027Z,29.74
2023-04-26T02:17:58.175Z,29.69
2023-04-26T02:18:58.133Z,29.70
2023-04-26T02:19:58.159Z,29.69
2023-04-26T02:20:58.210Z,29.62
2023-04-26T02:21:58.296Z,29.73
2023-04-26T02:22:58.305Z,29.70
2023-04-26T02:23:58.365Z,29.73
2023-04-26T02:24:58.435Z,29.66
2023-04-26T02:25:58.504Z,29.67
2023-04-26T02:26:58.552Z,29.75
2023-04-26T02:27:58.593Z,29.69
2023-04-26T02:28:58.638Z,29.71
2023-04-26T02:29:58.704Z,29.71
2023-04-26T02:30:58.843Z,29.74
2023-04-26T02:31:58.826Z,29.69
2023-04-26T02:32:58.857Z,29.69
2023-04-26T02:33:58.865Z,29.73
2023-04-26T02:34:59.099Z,29.73
2023-04-26T02:35:58.939Z,29.69
2023-04-26T02:36:58.963Z,29.64
2023-04-26T02:37:59.012Z,29.67
2023-04-26T02:38:59.050Z,29.69
2023-04-26T02:39:59.076Z,29.69
2023-04-26T02:40:59.106Z,29.70
2023-04-26T02:41:59.125Z,29.71
2023-04-26T02:42:59.159Z,29.71
2023-04-26T02:43:59.195Z,29.64
2023-04-26T02:44:59.241Z,29.69
2023-04-26T02:45:59.294Z,29.66
2023-04-26T02:46:59.340Z,29.69
2023-04-26T02:47:59.405Z,29.66
2023-04-26T02:48:59.399Z,29.63
2023-04-26T02:49:59.430Z,29.66
2023-04-26T02:50:59.512Z,29.69
2023-04-26T02:51:59.543Z,29.69
2023-04-26T02:52:59.595Z,29.67
2023-04-26T02:53:59.628Z,29.64
2023-04-26T02:54:59.677Z,29.67
2023-04-26T02:55:59.701Z,29.70
2023-04-26T02:56:59.743Z,29.62
2023-04-26T02:57:59.785Z,29.64
2023-04-26T02:58:59.846Z,29.61
2023-04-26T02:59:59.910Z,29.66
2023-04-26T03:01:01.676Z,29.64
2023-04-26T03:02:00.011Z,29.63
2023-04-26T03:03:00.161Z,29.62
2023-04-26T03:04:00.031Z,29.63
2023-04-26T03:04:59.923Z,29.64
2023-04-26T03:05:59.902Z,29.69
2023-04-26T03:06:59.937Z,29.63
2023-04-26T03:07:59.899Z,29.66
2023-04-26T03:08:59.888Z,29.64
2023-04-26T03:09:59.882Z,29.63
2023-04-26T03:10:59.871Z,29.64
2023-04-26T03:11:59.874Z,29.62
2023-04-26T03:12:59.905Z,29.61
2023-04-26T03:13:59.858Z,29.63
2023-04-26T03:14:59.841Z,29.65
2023-04-26T03:15:59.841Z,29.61
2023-04-26T03:16:59.858Z,29.58
2023-04-26T03:17:59.837Z,29.59
2023-04-26T03:18:59.812Z,29.59
2023-04-26T03:20:02.371Z,29.63
2023-04-26T03:20:59.801Z,29.63
2023-04-26T03:21:59.810Z,29.58
2023-04-26T03:22:59.872Z,29.59
2023-04-26T03:23:59.813Z,29.61
2023-04-26T03:24:59.773Z,29.58
2023-04-26T03:25:59.778Z,29.62
2023-04-26T03:26:59.769Z,29.63
2023-04-26T03:27:59.758Z,29.66
2023-04-26T03:28:59.755Z,29.59
2023-04-26T03:29:59.752Z,29.63
2023-04-26T03:30:59.737Z,29.62
2023-04-26T03:31:59.841Z,29.64
2023-04-26T03:32:59.744Z,29.59
2023-04-26T03:33:59.711Z,29.62
2023-04-26T03:34:59.737Z,29.63
2023-04-26T03:35:59.700Z,29.59
2023-04-26T03:36:59.696Z,29.60
2023-04-26T03:37:59.694Z,29.61
2023-04-26T03:38:59.704Z,29.63
2023-04-26T03:39:59.680Z,29.58
2023-04-26T03:40:59.667Z,29.56
2023-04-26T03:41:59.662Z,29.62
2023-04-26T03:42:59.667Z,29.56
2023-04-26T03:43:59.641Z,29.62
2023-04-26T03:44:59.639Z,29.63
2023-04-26T03:45:59.670Z,29.62
2023-04-26T03:46:59.619Z,29.59
2023-04-26T03:47:59.651Z,29.57
2023-04-26T03:48:59.608Z,29.61
2023-04-26T03:49:59.636Z,29.62
2023-04-26T03:50:59.680Z,29.59
2023-04-26T03:51:59.721Z,29.58
2023-04-26T03:52:59.759Z,29.58
2023-04-26T03:53:59.799Z,29.60
2023-04-26T03:54:59.864Z,29.55
2023-04-26T03:55:59.894Z,29.61
2023-04-26T03:56:59.950Z,29.56
2023-04-26T03:58:00.019Z,29.56
2023-04-26T03:59:00.096Z,29.56
2023-04-26T04:00:00.199Z,29.58
2023-04-26T04:01:00.189Z,29.63
2023-04-26T04:02:00.299Z,29.58
2023-04-26T04:03:00.408Z,29.59
2023-04-26T04:04:00.780Z,29.59
2023-04-26T04:05:00.717Z,29.55
2023-04-26T04:06:00.441Z,29.58
2023-04-26T04:07:00.511Z,29.55
2023-04-26T04:08:00.549Z,29.59
2023-04-26T04:09:00.552Z,29.54
2023-04-26T04:10:00.612Z,29.55
2023-04-26T04:11:00.687Z,29.52
2023-04-26T04:12:00.695Z,29.58
2023-04-26T04:13:00.731Z,29.51
2023-04-26T04:14:00.798Z,29.55
2023-04-26T04:15:00.830Z,29.55
2023-04-26T04:16:00.899Z,29.59
2023-04-26T04:17:00.948Z,29.50
2023-04-26T04:18:00.990Z,29.56
2023-04-26T04:19:01.008Z,29.54
2023-04-26T04:20:01.053Z,29.54
2023-04-26T04:21:01.078Z,29.50
2023-04-26T04:22:01.127Z,29.54
2023-04-26T04:23:01.163Z,29.56
2023-04-26T04:24:01.210Z,29.50
2023-04-26T04:25:01.253Z,29.50
2023-04-26T04:26:01.299Z,29.54
2023-04-26T04:27:01.358Z,29.53
2023-04-26T04:28:01.376Z,29.50
2023-04-26T04:29:01.414Z,29.50
2023-04-26T04:30:01.447Z,29.53
2023-04-26T04:31:01.497Z,29.49
2023-04-26T04:32:01.530Z,29.55
2023-04-26T04:33:01.653Z,29.52
2023-04-26T04:34:01.644Z,29.53
2023-04-26T04:35:01.704Z,29.54
2023-04-26T04:36:01.756Z,29.51
2023-04-26T04:37:01.803Z,29.50
2023-04-26T04:38:01.873Z,29.54
2023-04-26T04:39:01.897Z,29.52
2023-04-26T04:40:01.975Z,29.51
2023-04-26T04:41:01.973Z,29.51
2023-04-26T04:42:02.006Z,29.53
2023-04-26T04:43:02.052Z,29.49
2023-04-26T04:44:02.066Z,29.53
2023-04-26T04:45:02.096Z,29.50
2023-04-26T04:46:02.148Z,29.50
2023-04-26T04:47:02.167Z,29.51
2023-04-26T04:48:02.265Z,29.50
2023-04-26T04:49:02.218Z,29.50
2023-04-26T04:50:02.288Z,29.49
2023-04-26T04:51:02.325Z,29.49
2023-04-26T04:52:02.354Z,29.51
2023-04-26T04:53:02.413Z,29.54
2023-04-26T04:54:02.470Z,29.49
2023-04-26T04:55:02.528Z,29.47
2023-04-26T04:56:02.584Z,29.47
2023-04-26T04:57:02.632Z,29.47
2023-04-26T04:58:02.685Z,29.46
2023-04-26T04:59:02.745Z,29.54
2023-04-26T05:00:02.815Z,29.46
2023-04-26T05:01:02.825Z,29.49
2023-04-26T05:02:02.981Z,29.49
2023-04-26T05:03:03.119Z,29.44
2023-04-26T05:04:03.077Z,29.43
2023-04-26T05:05:03.128Z,29.46
2023-04-26T05:06:03.065Z,29.43
2023-04-26T05:07:03.098Z,29.46
2023-04-26T05:08:03.140Z,29.50
2023-04-26T05:09:03.191Z,29.49
2023-04-26T05:10:03.249Z,29.43
2023-04-26T05:11:03.316Z,29.45
2023-04-26T05:12:03.403Z,29.42
2023-04-26T05:13:03.426Z,29.42
2023-04-26T05:14:03.564Z,29.45
2023-04-26T05:15:03.571Z,29.43
2023-04-26T05:16:03.636Z,29.43
2023-04-26T05:17:03.653Z,29.45
2023-04-26T05:18:03.759Z,29.46
2023-04-26T05:19:03.761Z,29.44
2023-04-26T05:20:03.836Z,29.45
2023-04-26T05:21:03.894Z,29.40
2023-04-26T05:22:03.944Z,29.48
2023-04-26T05:23:04.036Z,29.55
2023-04-26T05:24:04.074Z,29.55
2023-04-26T05:25:04.165Z,29.55
2023-04-26T05:26:04.243Z,29.57
2023-04-26T05:27:04.597Z,29.56
2023-04-26T05:28:04.326Z,29.55
2023-04-26T05:29:04.382Z,29.55
2023-04-26T05:30:04.447Z,29.53
2023-04-26T05:31:04.543Z,29.55
2023-04-26T05:32:04.677Z,29.55
2023-04-26T05:33:04.727Z,29.53
2023-04-26T05:34:04.726Z,29.59
2023-04-26T05:35:05.092Z,29.56
2023-04-26T05:36:04.825Z,29.56
2023-04-26T05:37:04.895Z,29.52
2023-04-26T05:38:04.959Z,29.60
2023-04-26T05:39:05.040Z,29.57
2023-04-26T05:40:05.572Z,29.57
2023-04-26T05:41:05.145Z,29.60
2023-04-26T05:42:05.215Z,29.67
2023-04-26T05:43:05.268Z,29.70
2023-04-26T05:44:05.327Z,29.77
2023-04-26T05:45:05.418Z,29.76
2023-04-26T05:46:05.534Z,29.84
2023-04-26T05:47:05.548Z,29.79
2023-04-26T05:48:05.624Z,29.79
2023-04-26T05:49:05.653Z,29.85
2023-04-26T05:50:06.079Z,29.79
2023-04-26T05:51:05.770Z,29.87
2023-04-26T05:52:05.826Z,29.94
2023-04-26T05:53:05.902Z,30.01
2023-04-26T05:54:06.087Z,30.06
2023-04-26T05:55:06.357Z,30.21
2023-04-26T05:56:06.068Z,30.33
2023-04-26T05:57:06.194Z,30.58
2023-04-26T05:58:06.203Z,30.75
2023-04-26T05:59:06.580Z,30.83
2023-04-26T06:00:06.317Z,30.90
2023-04-26T06:01:06.326Z,30.98
2023-04-26T06:02:06.611Z,30.98
2023-04-26T06:03:06.688Z,31.19
2023-04-26T06:04:07.021Z,31.35
2023-04-26T06:05:06.828Z,31.54
2023-04-26T06:06:06.526Z,31.72
2023-04-26T06:07:06.566Z,31.78
2023-04-26T06:08:07.081Z,31.94
2023-04-26T06:09:06.646Z,32.21
2023-04-26T06:10:07.085Z,32.25
2023-04-26T06:11:06.675Z,32.37
2023-04-26T06:12:06.699Z,32.61
2023-04-26T06:13:06.715Z,32.66
2023-04-26T06:14:08.925Z,32.88
2023-04-26T06:15:07.084Z,33.00
2023-04-26T06:16:06.699Z,33.04
2023-04-26T06:17:06.730Z,33.31
2023-04-26T06:18:06.792Z,33.29
2023-04-26T06:19:06.815Z,33.41
2023-04-26T06:20:07.086Z,33.46
2023-04-26T06:21:06.664Z,33.63
2023-04-26T06:22:06.665Z,33.74
2023-04-26T06:23:06.656Z,33.75
2023-04-26T06:24:06.813Z,33.79
2023-04-26T06:25:07.095Z,33.97
2023-04-26T06:26:07.092Z,34.01
2023-04-26T06:27:06.614Z,33.99
2023-04-26T06:28:06.626Z,34.22
2023-04-26T06:29:06.610Z,34.16
2023-04-26T06:30:06.604Z,34.35
2023-04-26T06:31:07.130Z,34.31
2023-04-26T06:32:06.594Z,34.35
2023-04-26T06:33:06.625Z,34.62
2023-04-26T06:34:07.882Z,34.46
2023-04-26T06:35:06.656Z,34.51
2023-04-26T06:36:06.548Z,34.66
2023-04-26T06:37:06.598Z,33.81
2023-04-26T06:38:06.822Z,31.69
2023-04-26T06:39:06.537Z,30.59
2023-04-26T06:40:06.556Z,30.14
2023-04-26T06:41:06.607Z,29.96
2023-04-26T06:42:06.513Z,29.61
2023-04-26T06:43:06.521Z,29.42
2023-04-26T06:44:06.499Z,29.29
2023-04-26T06:45:06.595Z,28.93
2023-04-26T06:46:09.738Z,28.95
2023-04-26T06:47:06.482Z,29.47
2023-04-26T06:48:07.156Z,30.27
2023-04-26T06:49:06.465Z,30.83
2023-04-26T06:50:06.606Z,31.01
2023-04-26T06:51:06.559Z,31.34
2023-04-26T06:52:06.621Z,31.54
2023-04-26T06:53:06.463Z,31.64
2023-04-26T06:54:06.479Z,31.56
2023-04-26T06:55:06.598Z,31.42
2023-04-26T06:56:09.646Z,31.25
2023-04-26T06:57:06.408Z,31.17
2023-04-26T06:58:06.413Z,31.14
2023-04-26T06:59:06.399Z,31.09
2023-04-26T07:00:06.633Z,31.02
2023-04-26T07:01:06.396Z,31.05
2023-04-26T07:02:06.708Z,30.97
2023-04-26T07:03:06.504Z,30.95
2023-04-26T07:04:06.552Z,30.97
2023-04-26T07:05:06.505Z,30.90
2023-04-26T07:06:06.405Z,30.91
2023-04-26T07:07:06.407Z,30.84
2023-04-26T07:08:07.044Z,30.83
2023-04-26T07:09:06.340Z,30.82
2023-04-26T07:10:06.701Z,30.81
2023-04-26T07:11:06.351Z,30.78
2023-04-26T07:12:06.562Z,30.79
2023-04-26T07:13:09.298Z,30.79
2023-04-26T07:14:06.303Z,30.80
2023-04-26T07:15:06.303Z,30.78
2023-04-26T07:16:06.357Z,30.77
2023-04-26T07:17:06.287Z,30.78
2023-04-26T07:18:06.648Z,30.71
2023-04-26T07:19:06.278Z,30.75
2023-04-26T07:20:06.620Z,30.73
2023-04-26T07:21:06.272Z,30.76
2023-04-26T07:22:06.282Z,30.73
2023-04-26T07:23:06.762Z,30.74
2023-04-26T07:24:06.251Z,30.73
2023-04-26T07:25:06.228Z,30.70
2023-04-26T07:26:06.222Z,30.72
2023-04-26T07:27:06.209Z,30.68
2023-04-26T07:28:06.633Z,30.68
2023-04-26T07:29:06.197Z,30.69
2023-04-26T07:30:06.409Z,30.68
2023-04-26T07:31:08.747Z,30.65
2023-04-26T07:32:06.207Z,30.65
2023-04-26T07:33:06.754Z,30.68
2023-04-26T07:34:06.167Z,30.65
2023-04-26T07:35:06.184Z,30.68
2023-04-26T07:36:06.164Z,30.61
2023-04-26T07:37:06.145Z,30.61
2023-04-26T07:38:06.614Z,30.68
2023-04-26T07:39:06.235Z,29.91
2023-04-26T07:40:06.129Z,30.45
2023-04-26T07:41:10.863Z,30.55
2023-04-26T07:42:06.524Z,30.82
2023-04-26T07:43:06.121Z,30.94
2023-04-26T07:44:06.099Z,31.00
2023-04-26T07:45:06.124Z,30.89
2023-04-26T07:46:06.169Z,31.12
2023-04-26T07:47:06.088Z,31.21
2023-04-26T07:48:06.120Z,31.43
2023-04-26T07:49:06.061Z,31.56
2023-04-26T07:50:06.125Z,31.64
2023-04-26T07:51:06.122Z,31.84
2023-04-26T07:52:06.048Z,31.94
2023-04-26T07:53:06.043Z,31.91
2023-04-26T07:54:06.037Z,31.75
2023-04-26T07:55:06.192Z,31.69
2023-04-26T07:56:06.132Z,31.66
2023-04-26T07:57:06.182Z,31.62
2023-04-26T07:58:05.997Z,31.61
2023-04-26T07:59:06.023Z,31.58
2023-04-26T08:00:06.130Z,31.54
2023-04-26T08:01:06.127Z,31.50
2023-04-26T08:02:06.174Z,31.46
2023-04-26T08:03:06.118Z,31.46
2023-04-26T08:04:06.188Z,31.48
2023-04-26T08:05:06.346Z,31.45
2023-04-26T08:06:06.306Z,31.45
2023-04-26T08:07:06.114Z,31.42
2023-04-26T08:08:06.137Z,31.40
2023-04-26T08:09:06.187Z,31.41
2023-04-26T08:10:06.218Z,31.41
2023-04-26T08:11:06.647Z,31.41
2023-04-26T08:12:06.659Z,31.38
2023-04-26T08:13:06.352Z,31.36
2023-04-26T08:14:06.378Z,31.36
2023-04-26T08:15:06.650Z,31.36
2023-04-26T08:16:06.466Z,31.37
2023-04-26T08:17:06.577Z,31.36
2023-04-26T08:18:06.639Z,31.33
2023-04-26T08:19:06.624Z,31.35
2023-04-26T08:20:07.141Z,31.30
2023-04-26T08:21:07.136Z,31.33
2023-04-26T08:22:06.895Z,31.36
2023-04-26T08:23:06.759Z,31.29
2023-04-26T08:24:06.803Z,31.36
2023-04-26T08:25:07.145Z,31.33
2023-04-26T08:26:07.129Z,31.28
2023-04-26T08:27:07.006Z,31.29
2023-04-26T08:28:06.984Z,31.28
2023-04-26T08:29:07.042Z,31.28
2023-04-26T08:30:07.075Z,31.27
2023-04-26T08:31:07.159Z,31.25
2023-04-26T08:32:07.173Z,31.32
2023-04-26T08:33:07.282Z,31.25
2023-04-26T08:34:07.302Z,31.25
2023-04-26T08:35:07.319Z,31.23
2023-04-26T08:36:07.634Z,31.24
2023-04-26T08:37:07.411Z,31.22
2023-04-26T08:38:07.454Z,31.27
2023-04-26T08:39:07.515Z,31.25
2023-04-26T08:40:07.542Z,31.23
2023-04-26T08:41:07.633Z,31.27
2023-04-26T08:42:07.635Z,31.22
2023-04-26T08:43:07.717Z,31.27
2023-04-26T08:44:07.743Z,31.22
2023-04-26T08:45:08.131Z,31.23
2023-04-26T08:46:07.907Z,31.20
2023-04-26T08:47:07.877Z,31.23
2023-04-26T08:48:07.956Z,31.24
2023-04-26T08:49:08.001Z,31.20
2023-04-26T08:50:08.152Z,31.18
2023-04-26T08:51:08.068Z,31.21
2023-04-26T08:52:08.109Z,31.17
2023-04-26T08:53:08.158Z,31.23
2023-04-26T08:54:08.208Z,31.23
2023-04-26T08:55:08.259Z,31.22
2023-04-26T08:56:09.194Z,31.27
2023-04-26T08:57:08.358Z,31.25
2023-04-26T08:58:08.412Z,31.25
2023-04-26T08:59:08.511Z,31.22
2023-04-26T09:00:08.523Z,31.21
2023-04-26T09:01:08.679Z,31.23
2023-04-26T09:02:08.744Z,31.26
2023-04-26T09:03:08.771Z,31.23
2023-04-26T09:04:08.918Z,31.23
2023-04-26T09:05:08.796Z,31.22
2023-04-26T09:06:09.162Z,31.23
2023-04-26T09:07:08.977Z,31.19
2023-04-26T09:08:08.965Z,31.27
2023-04-26T09:09:08.984Z,31.19
2023-04-26T09:10:09.031Z,31.17
2023-04-26T09:11:09.186Z,31.23
2023-04-26T09:12:09.244Z,31.19
2023-04-26T09:13:09.170Z,31.17
2023-04-26T09:14:09.216Z,31.19
2023-04-26T09:15:09.312Z,31.17
2023-04-26T09:16:09.664Z,31.17
2023-04-26T09:17:09.351Z,31.16
2023-04-26T09:18:09.413Z,31.14
2023-04-26T09:19:09.463Z,31.10
2023-04-26T09:20:09.501Z,31.16
2023-04-26T09:21:09.649Z,31.13
2023-04-26T09:22:09.590Z,31.17
2023-04-26T09:23:09.664Z,31.10
2023-04-26T09:24:10.153Z,31.13
2023-04-26T09:25:09.730Z,31.10
2023-04-26T09:26:09.796Z,31.12
2023-04-26T09:27:09.860Z,31.16
2023-04-26T09:28:09.882Z,31.13
2023-04-26T09:29:10.158Z,31.39
2023-04-26T09:30:09.993Z,31.47
2023-04-26T09:31:10.251Z,31.44
2023-04-26T09:32:13.305Z,29.68
2023-04-26T09:33:10.174Z,29.09
2023-04-26T09:34:10.659Z,28.88
2023-04-26T09:35:10.087Z,28.55
2023-04-26T09:36:10.160Z,28.50
2023-04-26T09:37:10.075Z,28.59
2023-04-26T09:38:12.660Z,28.63
2023-04-26T09:39:10.082Z,28.81
2023-04-26T09:40:10.059Z,29.72
2023-04-26T09:41:11.168Z,29.96
2023-04-26T09:42:10.118Z,30.85
2023-04-26T09:43:10.063Z,31.12
2023-04-26T09:44:10.049Z,31.34
2023-04-26T09:45:10.047Z,31.75
2023-04-26T09:46:10.160Z,32.20
2023-04-26T09:47:10.156Z,32.46
2023-04-26T09:48:10.011Z,32.81
2023-04-26T09:49:10.012Z,33.10
2023-04-26T09:50:10.191Z,33.23
2023-04-26T09:51:10.167Z,33.40
2023-04-26T09:52:10.099Z,33.76
2023-04-26T09:53:10.120Z,34.00
2023-04-26T09:54:10.169Z,34.18
2023-04-26T09:55:16.422Z,34.40
2023-04-26T09:56:10.681Z,34.61
2023-04-26T09:57:10.189Z,34.62
2023-04-26T09:58:10.202Z,34.80
2023-04-26T09:59:10.197Z,34.83
2023-04-26T10:00:10.167Z,35.04
2023-04-26T10:01:10.245Z,35.08
2023-04-26T10:02:10.151Z,35.38
2023-04-26T10:03:10.302Z,35.38
2023-04-26T10:04:10.269Z,35.54
2023-04-26T10:05:10.130Z,35.63
2023-04-26T10:06:10.161Z,35.82
2023-04-26T10:07:10.118Z,35.60
2023-04-26T10:08:10.149Z,35.26
2023-04-26T10:09:10.108Z,34.81
2023-04-26T10:10:10.091Z,35.08
2023-04-26T10:11:10.174Z,34.92
2023-04-26T10:12:10.081Z,34.57
2023-04-26T10:13:10.078Z,34.65
2023-04-26T10:14:10.078Z,34.43
2023-04-26T10:15:10.059Z,34.35
2023-04-26T10:16:10.487Z,34.33
2023-04-26T10:17:10.047Z,34.22
2023-04-26T10:18:10.222Z,34.08
2023-04-26T10:19:10.060Z,34.01
2023-04-26T10:20:10.045Z,33.82
2023-04-26T10:21:10.022Z,33.78
2023-04-26T10:22:10.020Z,33.63
2023-04-26T10:23:10.181Z,33.53
2023-04-26T10:24:10.004Z,33.35
2023-04-26T10:25:09.993Z,33.25
2023-04-26T10:26:10.271Z,33.10
2023-04-26T10:27:09.985Z,32.30
2023-04-26T10:28:09.975Z,32.77
2023-04-26T10:29:09.967Z,32.65
2023-04-26T10:30:10.384Z,32.59
2023-04-26T10:31:10.565Z,32.56
2023-04-26T10:32:10.513Z,32.46
2023-04-26T10:33:10.495Z,32.32
2023-04-26T10:34:11.938Z,32.32
2023-04-26T10:35:10.356Z,32.27
2023-04-26T10:36:10.569Z,32.24
2023-04-26T10:37:10.243Z,32.07
2023-04-26T10:38:10.421Z,32.06
2023-04-26T10:39:10.308Z,31.99
2023-04-26T10:40:10.314Z,31.61
2023-04-26T10:41:10.294Z,31.88
2023-04-26T10:42:10.291Z,31.90
2023-04-26T10:43:10.641Z,31.94
2023-04-26T10:44:10.148Z,31.83
2023-04-26T10:45:10.307Z,31.77
2023-04-26T10:46:09.887Z,31.78
2023-04-26T10:47:10.235Z,31.77
2023-04-26T10:48:10.287Z,31.78
2023-04-26T10:49:10.208Z,31.70
2023-04-26T10:50:09.889Z,31.67
2023-04-26T10:51:10.218Z,31.49
2023-04-26T10:52:09.801Z,31.49
2023-04-26T10:53:10.197Z,31.39
2023-04-26T10:54:09.803Z,31.46
2023-04-26T10:55:09.798Z,31.41
2023-04-26T10:56:10.246Z,31.21
2023-04-26T10:57:09.794Z,31.14
2023-04-26T10:58:09.765Z,31.14
2023-04-26T10:59:28.343Z,31.16
2023-04-26T11:00:09.746Z,31.06
2023-04-26T11:01:09.828Z,30.99
2023-04-26T11:02:09.747Z,30.94
2023-04-26T11:03:10.281Z,30.77
2023-04-26T11:04:09.828Z,30.44
2023-04-26T11:05:09.785Z,30.59
2023-04-26T11:06:10.198Z,30.69
2023-04-26T11:07:09.725Z,30.66
2023-04-26T11:08:10.572Z,30.71
2023-04-26T11:09:09.686Z,30.83
2023-04-26T11:10:09.686Z,30.74
2023-04-26T11:11:09.689Z,30.79
2023-04-26T11:12:09.671Z,30.65
2023-04-26T11:13:09.668Z,30.73
2023-04-26T11:14:09.654Z,30.55
2023-04-26T11:15:09.679Z,26.90
2023-04-26T11:16:09.821Z,27.14
2023-04-26T11:17:10.447Z,27.36
2023-04-26T11:18:09.635Z,27.12
2023-04-26T11:19:09.631Z,27.35
2023-04-26T11:20:10.209Z,27.54
2023-04-26T11:21:09.609Z,27.47
2023-04-26T11:22:09.592Z,27.49
2023-04-26T11:23:09.626Z,27.64
2023-04-26T11:24:09.586Z,27.59
2023-04-26T11:25:09.595Z,27.32
2023-04-26T11:26:09.702Z,27.15
2023-04-26T11:27:09.643Z,27.01
2023-04-26T11:28:09.684Z,27.09
2023-04-26T11:29:09.734Z,27.02
2023-04-26T11:30:09.797Z,26.94
2023-04-26T11:31:10.244Z,27.07
2023-04-26T11:32:10.300Z,26.96
2023-04-26T11:33:09.935Z,26.79
2023-04-26T11:34:09.985Z,26.70
2023-04-26T11:35:10.035Z,26.73
2023-04-26T11:36:10.199Z,26.20
2023-04-26T11:37:10.089Z,25.77
2023-04-26T11:38:10.112Z,25.67
2023-04-26T11:39:11.257Z,25.94
2023-04-26T11:40:10.287Z,26.31
2023-04-26T11:41:10.144Z,26.58
2023-04-26T11:42:10.146Z,26.55
2023-04-26T11:43:10.126Z,26.59
2023-04-26T11:44:10.121Z,26.54
2023-04-26T11:45:10.203Z,26.67
2023-04-26T11:46:10.468Z,26.59
2023-04-26T11:47:10.282Z,26.95
2023-04-26T11:48:10.103Z,27.14
2023-04-26T11:49:10.073Z,26.90
2023-04-26T11:50:10.088Z,27.06
2023-04-26T11:51:10.216Z,27.28
2023-04-26T11:52:10.071Z,27.38
2023-04-26T11:53:10.075Z,26.55
2023-04-26T11:54:10.031Z,25.86
2023-04-26T11:55:10.053Z,25.19
2023-04-26T11:56:10.020Z,25.81
2023-04-26T11:57:10.009Z,25.79
2023-04-26T11:58:09.994Z,26.21
2023-04-26T11:59:09.994Z,26.62
2023-04-26T12:00:10.217Z,26.50
2023-04-26T12:01:10.211Z,26.44
2023-04-26T12:02:10.045Z,26.17
2023-04-26T12:03:10.251Z,26.26
2023-04-26T12:04:10.468Z,26.35
2023-04-26T12:05:09.979Z,26.56
2023-04-26T12:06:09.954Z,26.62
2023-04-26T12:07:09.992Z,26.83
2023-04-26T12:08:09.921Z,26.92
2023-04-26T12:09:09.953Z,27.10
2023-04-26T12:10:10.018Z,27.05
2023-04-26T12:11:10.028Z,27.55
2023-04-26T12:12:10.223Z,27.92
2023-04-26T12:13:10.110Z,27.98
2023-04-26T12:14:10.390Z,28.07
2023-04-26T12:15:10.151Z,28.40
2023-04-26T12:16:22.458Z,28.63
2023-04-26T12:17:10.844Z,28.91
2023-04-26T12:18:10.863Z,29.02
2023-04-26T12:19:10.135Z,29.24
2023-04-26T12:20:10.186Z,29.39
2023-04-26T12:21:10.121Z,29.63
2023-04-26T12:22:10.150Z,29.81
2023-04-26T12:23:10.114Z,29.87
2023-04-26T12:24:10.098Z,29.98
2023-04-26T12:25:10.108Z,30.15
2023-04-26T12:26:10.109Z,30.29
2023-04-26T12:27:10.111Z,30.28
2023-04-26T12:28:10.339Z,30.42
2023-04-26T12:29:10.134Z,30.55
2023-04-26T12:30:10.245Z,30.65
2023-04-26T12:31:10.244Z,30.82
2023-04-26T12:32:10.732Z,30.92
2023-04-26T12:33:16.949Z,30.86
2023-04-26T12:34:10.260Z,31.13
2023-04-26T12:35:10.267Z,31.33
2023-04-26T12:36:10.723Z,31.34
2023-04-26T12:37:10.246Z,31.45
2023-04-26T12:38:10.564Z,31.53
2023-04-26T12:39:10.221Z,31.61
2023-04-26T12:40:10.268Z,31.76
2023-04-26T12:41:10.230Z,31.85
2023-04-26T12:42:10.212Z,31.96
2023-04-26T12:43:10.221Z,32.10
2023-04-26T12:44:10.187Z,32.13
2023-04-26T12:45:10.184Z,32.18
2023-04-26T12:46:10.303Z,32.48
2023-04-26T12:47:10.396Z,32.51
2023-04-26T12:48:10.235Z,32.56
2023-04-26T12:49:10.268Z,32.67
2023-04-26T12:50:10.173Z,32.75
2023-04-26T12:51:10.208Z,32.98
2023-04-26T12:52:10.892Z,33.06
2023-04-26T12:53:14.046Z,33.12